createdAt,value
2023-03-20T00:01:24.460Z,55.56
2023-03-20T00:03:26.579Z,55.47
2023-03-20T00:05:28.415Z,55.31
2023-03-20T00:07:30.382Z,55.51
2023-03-20T00:09:32.951Z,55.54
2023-03-20T00:11:34.552Z,55.53
2023-03-20T00:13:35.880Z,55.75
2023-03-20T00:15:38.096Z,56.17
2023-03-20T00:17:39.551Z,55.80
2023-03-20T00:19:40.855Z,56.00
2023-03-20T00:21:42.254Z,56.05
2023-03-20T00:23:43.546Z,55.92
2023-03-20T00:25:44.887Z,56.00
2023-03-20T00:27:46.439Z,56.23
2023-03-20T00:29:47.796Z,56.15
2023-03-20T00:31:49.253Z,55.93
2023-03-20T00:33:51.042Z,56.17
2023-03-20T00:35:52.381Z,55.58
2023-03-20T00:37:53.739Z,55.81
2023-03-20T00:39:55.036Z,56.18
2023-03-20T00:41:56.334Z,56.08
2023-03-20T00:43:57.679Z,55.92
2023-03-20T00:45:58.972Z,56.13
2023-03-20T00:48:00.645Z,56.65
2023-03-20T00:50:03.014Z,56.14
2023-03-20T00:52:04.332Z,56.00
2023-03-20T00:54:06.418Z,56.02
2023-03-20T00:56:08.057Z,56.00
2023-03-20T00:58:09.352Z,56.03
2023-03-20T01:00:10.681Z,56.09
2023-03-20T01:02:12.034Z,56.05
2023-03-20T01:04:13.436Z,55.94
2023-03-20T01:06:14.724Z,56.20
2023-03-20T01:08:16.247Z,56.56
2023-03-20T01:10:17.883Z,56.10
2023-03-20T01:12:19.185Z,56.10
2023-03-20T01:14:20.476Z,56.43
2023-03-20T01:16:22.025Z,56.65
2023-03-20T01:18:23.428Z,56.33
2023-03-20T01:20:24.723Z,56.49
2023-03-20T01:22:26.134Z,56.55
2023-03-20T01:24:27.462Z,56.50
2023-03-20T01:26:28.808Z,57.20
2023-03-20T01:28:30.673Z,56.91
2023-03-20T01:30:32.032Z,57.16
2023-03-20T01:32:33.384Z,57.03
2023-03-20T01:34:34.703Z,57.29
2023-03-20T01:36:36.208Z,57.27
2023-03-20T01:38:37.505Z,57.27
2023-03-20T01:40:38.903Z,57.09
2023-03-20T01:42:40.205Z,57.07
2023-03-20T01:44:41.496Z,57.09
2023-03-20T01:46:43.568Z,57.08
2023-03-20T01:48:44.891Z,57.00
2023-03-20T01:50:46.301Z,57.31
2023-03-20T01:52:47.601Z,57.23
2023-03-20T01:54:48.897Z,56.99
2023-03-20T01:56:50.444Z,56.94
2023-03-20T01:58:51.735Z,56.79
2023-03-20T02:00:53.580Z,56.93
2023-03-20T02:02:55.582Z,57.34
2023-03-20T02:04:57.017Z,57.03
2023-03-20T02:06:58.366Z,57.30
2023-03-20T02:08:59.666Z,56.94
2023-03-20T02:11:01.108Z,56.76
2023-03-20T02:13:02.473Z,56.82
2023-03-20T02:15:03.778Z,57.38
2023-03-20T02:17:05.536Z,56.75
2023-03-20T02:19:06.935Z,57.35
2023-03-20T02:21:08.238Z,57.28
2023-03-20T02:23:09.768Z,56.67
2023-03-20T02:25:15.826Z,56.70
2023-03-20T02:27:17.168Z,57.00
2023-03-20T02:29:18.504Z,56.47
2023-03-20T02:31:19.825Z,56.78
2023-03-20T02:33:21.171Z,56.69
2023-03-20T02:35:22.514Z,56.80
2023-03-20T02:37:23.835Z,57.25
2023-03-20T02:39:25.141Z,56.65
2023-03-20T02:41:26.567Z,57.22
2023-03-20T02:43:27.973Z,56.92
2023-03-20T02:45:29.372Z,56.96
2023-03-20T02:47:30.675Z,56.87
2023-03-20T02:49:32.008Z,56.95
2023-03-20T02:51:33.308Z,57.05
2023-03-20T02:53:34.605Z,57.09
2023-03-20T02:55:36.041Z,57.22
2023-03-20T02:57:37.617Z,57.50
2023-03-20T02:59:38.956Z,57.42
2023-03-20T03:01:40.275Z,57.46
2023-03-20T03:03:41.617Z,57.31
2023-03-20T03:05:42.952Z,57.23
2023-03-20T03:07:44.296Z,57.42
2023-03-20T03:09:46.178Z,57.55
2023-03-20T03:11:47.513Z,57.92
2023-03-20T03:13:48.845Z,57.74
2023-03-20T03:15:50.357Z,57.31
2023-03-20T03:17:51.976Z,57.62
2023-03-20T03:19:53.320Z,57.42
2023-03-20T03:21:54.648Z,57.48
2023-03-20T03:23:56.336Z,57.80
2023-03-20T03:25:57.663Z,57.15
2023-03-20T03:27:59.009Z,57.22
2023-03-20T03:30:00.550Z,57.45
2023-03-20T03:32:02.496Z,57.65
2023-03-20T03:34:03.811Z,57.66
2023-03-20T03:36:05.658Z,57.78
2023-03-20T03:38:07.025Z,57.71
2023-03-20T03:40:08.960Z,57.37
2023-03-20T03:42:10.393Z,56.79
2023-03-20T03:44:11.715Z,57.96
2023-03-20T03:46:13.094Z,57.97
2023-03-20T03:48:14.430Z,57.73
2023-03-20T03:50:15.796Z,57.50
2023-03-20T03:52:17.144Z,57.62
2023-03-20T03:54:18.476Z,56.76
2023-03-20T03:56:19.818Z,56.24
2023-03-20T03:58:21.524Z,56.85
2023-03-20T04:00:25.722Z,57.29
2023-03-20T04:02:27.031Z,56.80
2023-03-20T04:04:28.433Z,56.49
2023-03-20T04:06:29.828Z,56.23
2023-03-20T04:08:31.465Z,56.09
2023-03-20T04:10:32.765Z,55.89
2023-03-20T04:12:34.131Z,55.54
2023-03-20T04:14:35.568Z,55.39
2023-03-20T04:16:36.945Z,55.44
2023-03-20T04:18:38.555Z,55.22
2023-03-20T04:20:39.873Z,54.97
2023-03-20T04:22:41.350Z,54.98
2023-03-20T04:24:42.657Z,54.63
2023-03-20T04:26:43.955Z,54.67
2023-03-20T04:28:45.594Z,54.71
2023-03-20T04:30:48.294Z,54.60
2023-03-20T04:32:49.659Z,54.52
2023-03-20T04:34:52.205Z,54.74
2023-03-20T04:36:53.499Z,54.55
2023-03-20T04:38:57.522Z,55.03
2023-03-20T04:40:59.026Z,54.58
2023-03-20T04:43:00.368Z,55.07
2023-03-20T04:45:01.668Z,54.70
2023-03-20T04:47:02.980Z,55.08
2023-03-20T04:49:04.277Z,54.63
2023-03-20T04:51:05.757Z,54.73
2023-03-20T04:53:07.171Z,54.73
2023-03-20T04:55:08.509Z,55.13
2023-03-20T04:57:09.871Z,55.13
2023-03-20T04:59:11.216Z,55.14
2023-03-20T05:01:12.555Z,54.74
2023-03-20T05:03:13.907Z,55.13
2023-03-20T05:05:15.475Z,55.29
2023-03-20T05:07:16.899Z,54.99
2023-03-20T05:09:18.205Z,55.40
2023-03-20T05:11:19.521Z,55.42
2023-03-20T05:13:20.860Z,55.48
2023-03-20T05:15:22.193Z,55.46
2023-03-20T05:17:23.549Z,55.51
2023-03-20T05:19:24.950Z,55.75
2023-03-20T05:21:26.250Z,55.42
2023-03-20T05:23:27.604Z,55.35
2023-03-20T05:25:28.939Z,55.34
2023-03-20T05:27:30.303Z,55.26
2023-03-20T05:29:31.689Z,55.28
2023-03-20T05:31:33.088Z,55.20
2023-03-20T05:33:36.816Z,55.13
2023-03-20T05:35:39.780Z,54.77
2023-03-20T05:37:41.499Z,54.57
2023-03-20T05:39:42.824Z,54.36
2023-03-20T05:41:45.803Z,54.22
2023-03-20T05:43:47.306Z,53.94
2023-03-20T05:45:48.617Z,53.71
2023-03-20T05:47:49.968Z,53.71
2023-03-20T05:49:51.325Z,53.47
2023-03-20T05:51:52.692Z,53.74
2023-03-20T05:53:54.036Z,53.09
2023-03-20T05:55:55.444Z,53.34
2023-03-20T05:57:56.918Z,53.20
2023-03-20T05:59:58.253Z,53.35
2023-03-20T06:01:59.588Z,53.30
2023-03-20T06:04:01.041Z,53.04
2023-03-20T06:06:02.405Z,53.34
2023-03-20T06:08:03.791Z,53.36
2023-03-20T06:10:05.091Z,53.09
2023-03-20T06:12:06.484Z,53.70
2023-03-20T06:14:07.787Z,53.17
2023-03-20T06:16:09.204Z,53.20
2023-03-20T06:18:10.614Z,53.53
2023-03-20T06:20:11.946Z,53.47
2023-03-20T06:22:13.285Z,53.36
2023-03-20T06:24:14.624Z,53.44
2023-03-20T06:26:15.961Z,54.23
2023-03-20T06:28:17.422Z,53.51
2023-03-20T06:30:18.880Z,53.71
2023-03-20T06:32:20.215Z,54.01
2023-03-20T06:34:21.756Z,53.96
2023-03-20T06:36:23.056Z,53.94
2023-03-20T06:38:24.451Z,54.31
2023-03-20T06:40:27.313Z,54.06
2023-03-20T06:42:28.653Z,54.18
2023-03-20T06:44:30.003Z,54.17
2023-03-20T06:46:31.657Z,54.36
2023-03-20T06:48:33.260Z,54.26
2023-03-20T06:50:34.562Z,54.18
2023-03-20T06:52:35.909Z,53.91
2023-03-20T06:54:37.220Z,54.17
2023-03-20T06:56:38.537Z,54.33
2023-03-20T06:58:42.987Z,54.13
2023-03-20T07:00:44.443Z,54.05
2023-03-20T07:02:45.792Z,54.36
2023-03-20T07:04:47.121Z,54.09
2023-03-20T07:06:48.446Z,53.87
2023-03-20T07:08:51.413Z,53.77
2023-03-20T07:10:53.458Z,53.83
2023-03-20T07:12:55.065Z,53.80
2023-03-20T07:14:56.355Z,53.41
2023-03-20T07:16:57.738Z,53.02
2023-03-20T07:18:59.160Z,53.05
2023-03-20T07:21:01.767Z,52.69
2023-03-20T07:23:03.086Z,52.72
2023-03-20T07:25:04.513Z,52.84
2023-03-20T07:27:05.849Z,52.97
2023-03-20T07:29:07.154Z,52.59
2023-03-20T07:31:08.519Z,52.55
2023-03-20T07:33:09.930Z,52.74
2023-03-20T07:35:11.334Z,52.95
2023-03-20T07:37:12.635Z,52.78
2023-03-20T07:39:13.997Z,52.66
2023-03-20T07:41:15.423Z,52.52
2023-03-20T07:43:16.727Z,52.94
2023-03-20T07:45:18.310Z,53.09
2023-03-20T07:47:19.654Z,52.88
2023-03-20T07:49:21.023Z,52.86
2023-03-20T07:51:22.324Z,53.19
2023-03-20T07:53:23.619Z,52.96
2023-03-20T07:55:25.192Z,53.13
2023-03-20T07:57:26.497Z,53.55
2023-03-20T07:59:27.836Z,53.28
2023-03-20T08:01:29.173Z,53.54
2023-03-20T08:03:30.722Z,53.42
2023-03-20T08:05:32.192Z,53.45
2023-03-20T08:07:33.796Z,53.33
2023-03-20T08:09:35.355Z,53.13
2023-03-20T08:11:36.796Z,53.50
2023-03-20T08:13:38.143Z,53.08
2023-03-20T08:15:39.729Z,53.24
2023-03-20T08:17:41.088Z,53.28
2023-03-20T08:19:42.527Z,53.46
2023-03-20T08:21:43.861Z,53.18
2023-03-20T08:23:46.048Z,53.40
2023-03-20T08:25:47.357Z,53.57
2023-03-20T08:27:48.660Z,53.60
2023-03-20T08:29:50.003Z,53.47
2023-03-20T08:31:51.306Z,53.45
2023-03-20T08:33:52.875Z,53.27
2023-03-20T08:35:54.182Z,53.04
2023-03-20T08:37:55.571Z,53.21
2023-03-20T08:39:56.964Z,52.84
2023-03-20T08:41:59.710Z,53.08
2023-03-20T08:44:03.024Z,53.04
2023-03-20T08:46:04.433Z,52.61
2023-03-20T08:48:05.833Z,52.89
2023-03-20T08:50:07.468Z,52.79
2023-03-20T08:52:08.854Z,52.28
2023-03-20T08:54:10.203Z,52.20
2023-03-20T08:56:12.098Z,51.90
2023-03-20T08:58:13.515Z,51.93
2023-03-20T09:00:15.635Z,52.28
2023-03-20T09:02:17.093Z,51.97
2023-03-20T09:04:18.684Z,51.78
2023-03-20T09:06:20.035Z,52.42
2023-03-20T09:08:21.329Z,52.53
2023-03-20T09:10:22.670Z,52.53
2023-03-20T09:12:24.270Z,52.18
2023-03-20T09:14:25.695Z,52.38
2023-03-20T09:16:27.113Z,52.67
2023-03-20T09:18:28.684Z,52.99
2023-03-20T09:20:30.273Z,53.07
2023-03-20T09:22:31.949Z,53.19
2023-03-20T09:24:33.761Z,52.92
2023-03-20T09:26:35.155Z,53.43
2023-03-20T09:28:36.513Z,53.30
2023-03-20T09:30:38.589Z,53.17
2023-03-20T09:32:40.250Z,53.40
2023-03-20T09:34:41.732Z,53.00
2023-03-20T09:36:43.224Z,53.31
2023-03-20T09:38:44.533Z,53.32
2023-03-20T09:40:46.113Z,53.17
2023-03-20T09:42:47.452Z,53.24
2023-03-20T09:44:48.751Z,53.23
2023-03-20T09:46:50.149Z,52.87
2023-03-20T09:48:54.270Z,53.13
2023-03-20T09:50:55.961Z,52.71
2023-03-20T09:52:57.380Z,52.79
2023-03-20T09:54:58.713Z,52.44
2023-03-20T09:57:00.159Z,52.40
2023-03-20T09:59:01.559Z,52.41
2023-03-20T10:01:02.859Z,51.96
2023-03-20T10:03:04.196Z,52.31
2023-03-20T10:05:05.977Z,52.14
2023-03-20T10:07:07.282Z,51.83
2023-03-20T10:09:08.574Z,52.04
2023-03-20T10:11:09.919Z,51.81
2023-03-20T10:13:11.581Z,52.18
2023-03-20T10:15:12.953Z,52.25
2023-03-20T10:17:14.252Z,52.04
2023-03-20T10:19:15.580Z,51.95
2023-03-20T10:21:18.662Z,52.27
2023-03-20T10:23:20.318Z,52.39
2023-03-20T10:25:21.744Z,52.13
2023-03-20T10:27:26.165Z,52.17
2023-03-20T10:29:28.919Z,52.31
2023-03-20T10:31:30.217Z,52.36
2023-03-20T10:33:32.096Z,52.82
2023-03-20T10:35:33.514Z,53.03
2023-03-20T10:37:34.921Z,52.76
2023-03-20T10:39:36.578Z,52.96
2023-03-20T10:41:38.386Z,52.97
2023-03-20T10:43:42.436Z,52.98
2023-03-20T10:45:44.746Z,52.98
2023-03-20T10:47:46.060Z,52.96
2023-03-20T10:49:48.164Z,52.92
2023-03-20T10:51:50.923Z,52.86
2023-03-20T10:53:52.368Z,52.87
2023-03-20T10:55:53.690Z,52.84
2023-03-20T10:57:54.998Z,52.77
2023-03-20T10:59:56.320Z,53.04
2023-03-20T11:01:57.678Z,52.97
2023-03-20T11:03:59.375Z,53.19
2023-03-20T11:06:09.200Z,52.90
2023-03-20T11:08:11.162Z,52.99
2023-03-20T11:10:12.513Z,52.59
2023-03-20T11:12:13.860Z,52.72
2023-03-20T11:14:15.301Z,52.79
2023-03-20T11:16:16.694Z,52.94
2023-03-20T11:18:20.905Z,52.61
2023-03-20T11:20:22.260Z,52.33
2023-03-20T11:22:23.592Z,52.48
2023-03-20T11:24:24.917Z,52.40
2023-03-20T11:26:26.257Z,52.43
2023-03-20T11:28:27.557Z,52.10
2023-03-20T11:30:28.867Z,52.42
2023-03-20T11:32:30.345Z,51.86
2023-03-20T11:34:33.111Z,52.16
2023-03-20T11:36:36.749Z,52.25
2023-03-20T11:38:38.104Z,52.25
2023-03-20T11:40:39.475Z,52.14
2023-03-20T11:42:40.764Z,52.32
2023-03-20T11:44:42.634Z,52.19
2023-03-20T11:46:44.335Z,52.00
2023-03-20T11:48:46.020Z,52.29
2023-03-20T11:50:47.347Z,51.83
2023-03-20T11:52:48.652Z,51.46
2023-03-20T11:54:50.014Z,51.89
2023-03-20T11:56:51.324Z,52.04
2023-03-20T11:58:52.624Z,51.80
2023-03-20T12:00:54.509Z,51.78
2023-03-20T12:02:56.073Z,52.23
2023-03-20T12:04:57.407Z,51.98
2023-03-20T12:06:58.736Z,52.39
2023-03-20T12:09:00.174Z,52.54
2023-03-20T12:11:01.486Z,52.61
2023-03-20T12:13:02.784Z,52.47
2023-03-20T12:15:04.085Z,52.52
2023-03-20T12:17:05.435Z,52.20
2023-03-20T12:19:09.736Z,52.62
2023-03-20T12:21:11.138Z,52.44
2023-03-20T12:23:12.468Z,52.49
2023-03-20T12:25:14.253Z,52.56
2023-03-20T12:27:16.347Z,52.56
2023-03-20T12:29:17.658Z,52.58
2023-03-20T12:31:19.186Z,52.24
2023-03-20T12:33:20.533Z,52.32
2023-03-20T12:35:21.877Z,52.46
2023-03-20T12:37:23.226Z,52.44
2023-03-20T12:39:24.559Z,52.55
2023-03-20T12:41:25.899Z,52.72
2023-03-20T12:43:27.566Z,52.64
2023-03-20T12:45:29.995Z,52.75
2023-03-20T12:47:33.132Z,52.82
2023-03-20T12:49:34.458Z,52.78
2023-03-20T12:51:35.898Z,52.52
2023-03-20T12:53:37.240Z,52.49
2023-03-20T12:55:38.549Z,52.41
2023-03-20T12:57:44.002Z,52.33
2023-03-20T12:59:48.952Z,52.31
2023-03-20T13:01:50.358Z,51.83
2023-03-20T13:03:51.653Z,52.21
2023-03-20T13:05:52.982Z,52.11
2023-03-20T13:07:54.315Z,52.17
2023-03-20T13:09:57.208Z,52.04
2023-03-20T13:11:58.571Z,52.09
2023-03-20T13:13:59.865Z,51.81
2023-03-20T13:16:02.181Z,52.23
2023-03-20T13:18:03.504Z,51.85
2023-03-20T13:20:04.876Z,51.73
2023-03-20T13:22:06.186Z,51.63
2023-03-20T13:24:07.575Z,51.80
2023-03-20T13:26:08.920Z,52.06
2023-03-20T13:28:10.260Z,52.01
2023-03-20T13:30:11.544Z,52.06
2023-03-20T13:32:12.871Z,52.18
2023-03-20T13:34:14.362Z,52.23
2023-03-20T13:36:15.834Z,51.90
2023-03-20T13:38:17.247Z,52.10
2023-03-20T13:40:18.560Z,52.21
2023-03-20T13:42:19.851Z,52.33
2023-03-20T13:44:21.265Z,52.37
2023-03-20T13:46:28.390Z,52.51
2023-03-20T13:48:29.755Z,52.36
2023-03-20T13:50:31.106Z,52.49
2023-03-20T13:52:32.400Z,52.34
2023-03-20T13:54:33.691Z,52.54
2023-03-20T13:56:35.094Z,52.11
2023-03-20T13:58:36.443Z,52.01
2023-03-20T14:00:38.168Z,52.29
2023-03-20T14:02:39.719Z,51.63
2023-03-20T14:04:41.079Z,51.18
2023-03-20T14:06:44.094Z,52.27
2023-03-20T14:08:45.626Z,51.93
2023-03-20T14:10:46.964Z,52.09
2023-03-20T14:12:48.265Z,52.28
2023-03-20T14:14:49.557Z,51.76
2023-03-20T14:16:50.848Z,52.42
2023-03-20T14:18:52.148Z,52.57
2023-03-20T14:20:53.468Z,52.35
2023-03-20T14:22:54.766Z,52.75
2023-03-20T14:24:56.104Z,52.80
2023-03-20T14:26:57.732Z,52.67
2023-03-20T14:29:02.732Z,52.14
2023-03-20T14:31:04.039Z,52.05
2023-03-20T14:33:05.483Z,52.16
2023-03-20T14:35:06.873Z,52.01
2023-03-20T14:37:08.168Z,52.59
2023-03-20T14:39:09.524Z,53.17
2023-03-20T14:41:10.815Z,53.42
2023-03-20T14:43:12.137Z,53.58
2023-03-20T14:45:13.445Z,53.74
2023-03-20T14:47:15.012Z,54.08
2023-03-20T14:49:16.968Z,53.83
2023-03-20T14:51:18.357Z,54.11
2023-03-20T14:53:19.749Z,54.44
2023-03-20T14:55:23.876Z,54.40
2023-03-20T14:57:25.533Z,54.35
2023-03-20T14:59:26.938Z,54.73
2023-03-20T15:01:28.450Z,54.45
2023-03-20T15:03:29.797Z,54.58
2023-03-20T15:05:31.458Z,54.64
2023-03-20T15:07:32.814Z,54.46
2023-03-20T15:09:34.219Z,54.90
2023-03-20T15:11:35.641Z,54.57
2023-03-20T15:13:36.932Z,55.23
2023-03-20T15:15:38.227Z,54.58
2023-03-20T15:17:39.573Z,54.78
2023-03-20T15:19:41.211Z,54.82
2023-03-20T15:21:42.503Z,55.21
2023-03-20T15:23:43.863Z,54.94
2023-03-20T15:25:45.210Z,55.02
2023-03-20T15:27:46.507Z,55.13
2023-03-20T15:29:47.841Z,54.76
2023-03-20T15:31:53.130Z,54.81
2023-03-20T15:33:58.565Z,54.79
2023-03-20T15:35:59.956Z,54.60
2023-03-20T15:38:01.351Z,54.46
2023-03-20T15:40:02.767Z,54.50
2023-03-20T15:42:04.127Z,54.09
2023-03-20T15:44:05.462Z,54.10
2023-03-20T15:46:17.947Z,54.76
2023-03-20T15:48:19.964Z,54.03
2023-03-20T15:50:26.912Z,54.04
2023-03-20T15:52:28.314Z,54.03
2023-03-20T15:54:32.523Z,53.90
2023-03-20T15:56:33.893Z,54.00
2023-03-20T15:58:35.549Z,54.28
2023-03-20T16:00:39.021Z,52.43
2023-03-20T16:02:40.353Z,53.32
2023-03-20T16:04:41.925Z,52.55
2023-03-20T16:06:44.088Z,52.91
2023-03-20T16:08:49.820Z,51.74
2023-03-20T16:10:51.175Z,52.73
2023-03-20T16:12:54.602Z,53.34
2023-03-20T16:14:56.132Z,53.26
2023-03-20T16:16:57.713Z,53.16
2023-03-20T16:18:59.425Z,53.97
2023-03-20T16:21:03.538Z,54.20
2023-03-20T16:23:04.835Z,53.70
2023-03-20T16:25:06.184Z,52.79
2023-03-20T16:27:07.517Z,51.75
2023-03-20T16:29:08.860Z,52.46
2023-03-20T16:31:13.248Z,52.84
2023-03-20T16:33:14.714Z,52.65
2023-03-20T16:35:16.203Z,53.42
2023-03-20T16:37:17.506Z,53.87
2023-03-20T16:39:18.899Z,53.71
2023-03-20T16:41:20.211Z,52.61
2023-03-20T16:43:23.772Z,53.53
2023-03-20T16:45:25.146Z,53.72
2023-03-20T16:47:26.471Z,53.49
2023-03-20T16:49:34.489Z,54.08
2023-03-20T16:51:38.974Z,53.84
2023-03-20T16:53:40.436Z,53.83
2023-03-20T16:55:41.781Z,53.75
2023-03-20T16:59:44.383Z,53.72
2023-03-20T17:01:48.148Z,53.98
2023-03-20T17:03:49.527Z,56.64
2023-03-20T17:05:50.994Z,54.16
2023-03-20T17:07:52.314Z,53.31
2023-03-20T17:09:53.613Z,53.50
2023-03-20T17:11:54.912Z,53.73
2023-03-20T17:13:56.446Z,53.74
2023-03-20T17:16:00.167Z,53.75
2023-03-20T17:18:03.953Z,53.56
2023-03-20T17:20:05.299Z,54.94
2023-03-20T17:22:06.980Z,54.75
2023-03-20T17:24:08.285Z,54.20
2023-03-20T17:26:09.648Z,54.33
2023-03-20T17:28:10.948Z,54.31
2023-03-20T17:30:12.241Z,54.38
2023-03-20T17:32:13.719Z,54.28
2023-03-20T17:34:15.359Z,53.79
2023-03-20T17:36:17.061Z,53.99
2023-03-20T17:38:18.477Z,54.28
2023-03-20T17:40:19.881Z,54.21
2023-03-20T17:42:31.456Z,54.14
2023-03-20T17:44:32.815Z,54.97
2023-03-20T17:46:54.255Z,54.75
2023-03-20T17:48:58.319Z,53.25
2023-03-20T17:50:59.648Z,54.12
2023-03-20T17:53:00.985Z,54.05
2023-03-20T17:55:05.402Z,54.24
2023-03-20T17:57:06.705Z,53.93
2023-03-20T17:59:08.035Z,53.86
2023-03-20T18:01:09.578Z,53.53
2023-03-20T18:03:15.343Z,53.74
2023-03-20T18:05:16.784Z,54.00
2023-03-20T18:07:18.167Z,52.93
2023-03-20T18:09:24.059Z,53.45
2023-03-20T18:11:25.466Z,53.47
2023-03-20T18:13:27.041Z,52.47
2023-03-20T18:15:28.502Z,52.98
2023-03-20T18:17:29.844Z,53.08
2023-03-20T18:19:31.274Z,53.43
2023-03-20T18:21:32.649Z,53.88
2023-03-20T18:23:33.946Z,53.54
2023-03-20T18:25:38.012Z,53.40
2023-03-20T18:27:39.310Z,53.13
2023-03-20T18:29:40.830Z,53.33
2023-03-20T18:31:44.996Z,53.28
2023-03-20T18:33:46.362Z,53.43
2023-03-20T18:35:47.717Z,54.29
2023-03-20T18:37:50.356Z,54.58
2023-03-20T18:39:51.676Z,53.43
2023-03-20T18:41:55.751Z,53.15
2023-03-20T18:43:57.210Z,53.76
2023-03-20T18:45:58.575Z,53.76
2023-03-20T18:47:59.966Z,54.29
2023-03-20T18:50:02.184Z,54.19
2023-03-20T18:52:06.774Z,54.06
2023-03-20T18:54:08.072Z,54.32
2023-03-20T18:56:09.385Z,54.22
2023-03-20T18:58:13.409Z,54.09
2023-03-20T19:00:14.841Z,54.55
2023-03-20T19:02:19.948Z,53.95
2023-03-20T19:04:23.140Z,54.18
2023-03-20T19:06:24.670Z,54.31
2023-03-20T19:08:26.016Z,54.27
2023-03-20T19:10:33.383Z,53.93
2023-03-20T19:12:37.906Z,54.02
2023-03-20T19:14:41.035Z,54.29
2023-03-20T19:16:43.355Z,54.47
2023-03-20T19:18:44.865Z,55.13
2023-03-20T19:20:52.075Z,55.03
2023-03-20T19:22:53.373Z,54.58
2023-03-20T19:24:54.835Z,55.10
2023-03-20T19:26:57.171Z,55.07
2023-03-20T19:28:58.661Z,54.32
2023-03-20T19:31:01.425Z,53.96
2023-03-20T19:33:02.848Z,54.37
2023-03-20T19:35:43.809Z,54.45
2023-03-20T19:37:25.817Z,54.11
2023-03-20T19:39:27.340Z,54.38
2023-03-20T19:41:28.827Z,55.10
2023-03-20T19:43:30.313Z,55.45
2023-03-20T19:45:31.723Z,55.67
2023-03-20T19:47:33.034Z,55.19
2023-03-20T19:49:34.349Z,55.99
2023-03-20T19:51:35.842Z,54.58
2023-03-20T19:53:37.154Z,55.21
2023-03-20T19:55:38.790Z,54.94
2023-03-20T19:57:40.304Z,54.42
2023-03-20T19:59:44.023Z,54.70
2023-03-20T20:01:45.928Z,54.60
2023-03-20T20:03:47.579Z,54.89
2023-03-20T20:05:49.356Z,55.23
2023-03-20T20:10:12.022Z,55.34
2023-03-20T20:12:13.319Z,55.37
2023-03-20T20:14:15.393Z,55.09
2023-03-20T20:16:16.878Z,55.62
2023-03-20T20:18:18.232Z,55.69
2023-03-20T20:20:25.604Z,55.70
2023-03-20T20:22:27.593Z,55.63
2023-03-20T20:24:31.961Z,55.33
2023-03-20T20:26:38.798Z,55.83
2023-03-20T20:28:41.748Z,55.33
2023-03-20T20:30:43.051Z,54.78
2023-03-20T20:32:44.841Z,53.84
2023-03-20T20:37:51.642Z,52.99
2023-03-20T20:39:32.011Z,53.56
2023-03-20T20:41:33.388Z,53.80
2023-03-20T20:44:06.852Z,53.57
2023-03-20T20:45:56.008Z,52.48
2023-03-20T20:47:57.445Z,53.28
2023-03-20T20:49:58.840Z,53.23
2023-03-20T20:52:00.277Z,53.87
2023-03-20T20:54:02.183Z,54.14
2023-03-20T20:56:03.565Z,53.43
2023-03-20T20:58:05.838Z,53.97
2023-03-20T21:00:09.085Z,53.97
2023-03-20T21:02:16.015Z,53.82
2023-03-20T21:04:17.386Z,54.41
2023-03-20T21:06:18.744Z,54.28
2023-03-20T21:08:20.111Z,54.84
2023-03-20T21:10:21.481Z,54.67
2023-03-20T21:12:34.788Z,50.51
2023-03-20T21:14:38.438Z,53.69
2023-03-20T21:16:39.748Z,52.14
2023-03-20T21:18:41.121Z,51.18
2023-03-20T21:20:42.443Z,51.16
2023-03-20T21:22:43.778Z,52.09
2023-03-20T21:24:45.104Z,52.34
2023-03-20T21:26:46.440Z,51.74
2023-03-20T21:28:47.732Z,52.17
2023-03-20T21:31:12.669Z,51.52
2023-03-20T21:33:13.416Z,51.85
2023-03-20T21:35:14.772Z,52.03
2023-03-20T21:38:15.824Z,52.66
2023-03-20T21:39:38.269Z,52.49
2023-03-20T21:41:39.578Z,53.28
2023-03-20T21:43:41.240Z,53.88
2023-03-20T21:48:39.447Z,54.43
2023-03-20T21:53:18.141Z,55.08
2023-03-20T21:58:16.683Z,55.63
2023-03-20T22:02:22.180Z,55.73
2023-03-20T22:19:29.527Z,56.75
2023-03-20T22:21:42.426Z,56.87
2023-03-20T22:31:10.499Z,56.89
2023-03-20T22:33:39.080Z,57.00
2023-03-20T22:38:17.146Z,57.51
2023-03-20T22:40:45.578Z,57.46
2023-03-20T22:46:53.059Z,57.61
2023-03-20T22:48:54.391Z,57.57
2023-03-20T22:50:55.681Z,57.66
2023-03-20T22:52:57.108Z,58.14
2023-03-20T22:54:58.691Z,57.86
2023-03-20T22:57:00.117Z,57.99
2023-03-20T22:59:02.248Z,58.05
2023-03-20T23:01:03.588Z,58.20
2023-03-20T23:03:37.506Z,57.83
2023-03-20T23:05:26.234Z,57.97
2023-03-20T23:07:27.544Z,57.91
2023-03-20T23:09:28.853Z,57.58
2023-03-20T23:11:30.191Z,57.91
2023-03-20T23:13:31.556Z,57.58
2023-03-20T23:15:32.846Z,57.72
2023-03-20T23:17:34.183Z,57.83
2023-03-20T23:19:46.980Z,57.40
2023-03-20T23:21:51.753Z,57.91
2023-03-20T23:23:53.053Z,57.57
2023-03-20T23:25:54.363Z,57.95
2023-03-20T23:27:55.842Z,58.17
2023-03-20T23:29:57.201Z,57.99
2023-03-20T23:31:58.599Z,57.72
2023-03-20T23:33:59.922Z,57.71
2023-03-20T23:36:16.140Z,57.80
2023-03-20T23:38:20.279Z,57.97
2023-03-20T23:40:21.637Z,58.10
2023-03-20T23:42:30.336Z,57.94
2023-03-20T23:44:32.271Z,58.33
2023-03-20T23:46:33.565Z,58.13
2023-03-20T23:48:34.867Z,58.31
2023-03-20T23:50:49.938Z,58.04
2023-03-20T23:53:01.125Z,58.03
2023-03-20T23:55:05.343Z,58.83
2023-03-20T23:57:06.644Z,58.59
2023-03-20T23:59:20.650Z,58.78
